createdAt,value
2016-10-12T00:00:22.221Z,0
2016-10-12T00:01:21.871Z,0
2016-10-12T00:02:22.511Z,0
2016-10-12T00:03:22.517Z,0
2016-10-12T00:04:22.282Z,0
2016-10-12T00:05:22.563Z,0
2016-10-12T00:06:22.582Z,0
2016-10-12T00:07:22.578Z,0
2016-10-12T00:08:22.619Z,0
2016-10-12T00:09:22.618Z,0
2016-10-12T00:10:22.332Z,0
2016-10-12T00:11:22.672Z,0
2016-10-12T00:12:22.470Z,0
2016-10-12T00:13:22.444Z,0
2016-10-12T00:14:22.422Z,0
2016-10-12T00:15:22.436Z,0
2016-10-12T00:16:22.429Z,0
2016-10-12T00:17:22.481Z,0
2016-10-12T00:18:22.805Z,0
2016-10-12T00:19:22.813Z,0
2016-10-12T00:20:22.523Z,0
2016-10-12T00:21:22.866Z,0
2016-10-12T00:22:22.917Z,0
2016-10-12T00:23:22.551Z,0
2016-10-12T00:24:22.676Z,0
2016-10-12T00:25:22.906Z,0
2016-10-12T00:26:22.956Z,0
2016-10-12T00:27:22.640Z,0
2016-10-12T00:28:23.037Z,0
2016-10-12T00:29:22.983Z,0
2016-10-12T00:30:22.686Z,0
2016-10-12T00:31:23.034Z,0
2016-10-12T00:32:23.054Z,0
2016-10-12T00:33:23.060Z,0
2016-10-12T00:34:22.868Z,0
2016-10-12T00:35:23.092Z,0
2016-10-12T00:36:23.263Z,0
2016-10-12T00:37:23.246Z,0
2016-10-12T00:38:23.206Z,0
2016-10-12T00:39:22.924Z,0
2016-10-12T00:40:23.307Z,0
2016-10-12T00:41:23.213Z,0
2016-10-12T00:42:23.232Z,0
2016-10-12T00:43:23.258Z,0
2016-10-12T00:44:23.045Z,0
2016-10-12T00:45:22.963Z,0
2016-10-12T00:46:23.306Z,0
2016-10-12T00:47:23.343Z,0
2016-10-12T00:48:23.126Z,0
2016-10-12T00:49:23.465Z,0
2016-10-12T00:50:23.354Z,0
2016-10-12T00:51:23.434Z,0
2016-10-12T00:52:23.501Z,0
2016-10-12T00:53:23.465Z,0
2016-10-12T00:54:23.423Z,0
2016-10-12T00:55:23.452Z,0
2016-10-12T00:56:23.184Z,0
2016-10-12T00:57:23.482Z,0
2016-10-12T00:58:23.214Z,0
2016-10-12T00:59:23.536Z,0
2016-10-12T01:00:23.344Z,0
2016-10-12T01:01:23.259Z,0
2016-10-12T01:02:23.660Z,0
2016-10-12T01:03:22.774Z,0
2016-10-12T01:04:23.648Z,0
2016-10-12T01:05:23.335Z,0
2016-10-12T01:06:23.374Z,0
2016-10-12T01:07:23.403Z,0
2016-10-12T01:08:23.386Z,0
2016-10-12T01:09:23.712Z,0
2016-10-12T01:10:23.728Z,0
2016-10-12T01:11:23.435Z,0
2016-10-12T01:12:23.757Z,0
2016-10-12T01:13:23.791Z,0
2016-10-12T01:14:23.199Z,0
2016-10-12T01:15:23.826Z,0
2016-10-12T01:16:23.520Z,0
2016-10-12T01:17:23.617Z,0
2016-10-12T01:18:23.637Z,0
2016-10-12T01:19:23.294Z,0
2016-10-12T01:20:23.694Z,0
2016-10-12T01:21:23.951Z,0
2016-10-12T01:22:23.636Z,0
2016-10-12T01:23:23.676Z,0
2016-10-12T01:24:23.805Z,0
2016-10-12T01:25:23.987Z,0
2016-10-12T01:26:23.748Z,0
2016-10-12T01:27:23.414Z,0
2016-10-12T01:28:24.049Z,0
2016-10-12T01:29:23.748Z,0
2016-10-12T01:30:24.200Z,0
2016-10-12T01:31:23.806Z,0
2016-10-12T01:32:24.166Z,0
2016-10-12T01:33:23.828Z,0
2016-10-12T01:34:23.846Z,0
2016-10-12T01:35:24.265Z,0
2016-10-12T01:36:24.188Z,0
2016-10-12T01:37:24.072Z,0
2016-10-12T01:38:23.921Z,0
2016-10-12T01:39:23.936Z,0
2016-10-12T01:40:24.277Z,0
2016-10-12T01:41:24.278Z,0
2016-10-12T01:42:23.987Z,0
2016-10-12T01:43:24.016Z,0
2016-10-12T01:44:24.397Z,0
2016-10-12T01:45:23.816Z,0
2016-10-12T01:46:24.450Z,0
2016-10-12T01:47:23.477Z,0
2016-10-12T01:48:24.096Z,0
2016-10-12T01:49:24.125Z,0
2016-10-12T01:50:24.458Z,0
2016-10-12T01:51:24.491Z,0
2016-10-12T01:52:24.477Z,0
2016-10-12T01:53:24.519Z,0
2016-10-12T01:54:24.268Z,0
2016-10-12T01:55:24.537Z,0
2016-10-12T01:56:24.256Z,0
2016-10-12T01:57:24.268Z,0
2016-10-12T01:58:24.367Z,0
2016-10-12T01:59:24.373Z,0
2016-10-12T02:00:24.028Z,0
2016-10-12T02:01:24.657Z,0
2016-10-12T02:02:24.377Z,0
2016-10-12T02:03:24.370Z,0
2016-10-12T02:04:24.687Z,0
2016-10-12T02:05:24.127Z,0
2016-10-12T02:06:24.740Z,0
2016-10-12T02:07:24.767Z,0
2016-10-12T02:08:24.460Z,0
2016-10-12T02:09:24.483Z,0
2016-10-12T02:10:24.508Z,0
2016-10-12T02:11:24.286Z,0
2016-10-12T02:12:24.856Z,0
2016-10-12T02:13:24.872Z,0
2016-10-12T02:14:24.939Z,0
2016-10-12T02:15:24.588Z,0
2016-10-12T02:16:24.627Z,0
2016-10-12T02:17:24.928Z,0
2016-10-12T02:18:24.712Z,0
2016-10-12T02:19:24.663Z,0
2016-10-12T02:20:24.987Z,0
2016-10-12T02:21:25.013Z,0
2016-10-12T02:22:24.738Z,0
2016-10-12T02:23:24.729Z,0
2016-10-12T02:24:25.069Z,0
2016-10-12T02:25:25.207Z,0
2016-10-12T02:26:24.786Z,0
2016-10-12T02:27:24.845Z,0
2016-10-12T02:28:24.822Z,0
2016-10-12T02:29:25.135Z,0
2016-10-12T02:30:25.177Z,0
2016-10-12T02:31:25.186Z,0
2016-10-12T02:32:25.219Z,0
2016-10-12T02:33:24.295Z,0
2016-10-12T02:34:24.617Z,0
2016-10-12T02:35:24.957Z,0
2016-10-12T02:36:25.049Z,0
2016-10-12T02:37:24.973Z,0
2016-10-12T02:38:25.466Z,0
2016-10-12T02:39:25.008Z,0
2016-10-12T02:40:25.026Z,0
2016-10-12T02:41:24.756Z,0
2016-10-12T02:42:24.757Z,0
2016-10-12T02:43:25.413Z,0
2016-10-12T02:44:25.427Z,0
2016-10-12T02:45:25.127Z,0
2016-10-12T02:46:25.196Z,0
2016-10-12T02:47:25.309Z,0
2016-10-12T02:48:25.178Z,0
2016-10-12T02:49:25.497Z,0
2016-10-12T02:50:24.898Z,0
2016-10-12T02:51:25.238Z,0
2016-10-12T02:52:25.609Z,0
2016-10-12T02:53:25.580Z,0
2016-10-12T02:54:25.289Z,0
2016-10-12T02:55:25.612Z,0
2016-10-12T02:56:25.636Z,0
2016-10-12T02:57:25.669Z,0
2016-10-12T02:58:26.015Z,0
2016-10-12T02:59:25.698Z,0
2016-10-12T03:00:25.727Z,0
2016-10-12T03:01:25.907Z,0
2016-10-12T03:02:25.633Z,0
2016-10-12T03:03:25.929Z,0
2016-10-12T03:04:25.308Z,0
2016-10-12T03:05:25.700Z,0
2016-10-12T03:06:25.829Z,0
2016-10-12T03:07:25.826Z,0
2016-10-12T03:08:25.596Z,0
2016-10-12T03:09:25.861Z,0
2016-10-12T03:10:25.898Z,0
2016-10-12T03:11:25.915Z,0
2016-10-12T03:12:25.908Z,0
2016-10-12T03:13:25.655Z,0
2016-10-12T03:14:25.956Z,0
2016-10-12T03:15:25.370Z,0
2016-10-12T03:16:26.051Z,0
2016-10-12T03:17:26.018Z,0
2016-10-12T03:18:26.039Z,0
2016-10-12T03:19:25.684Z,0
2016-10-12T03:20:25.829Z,0
2016-10-12T03:21:26.120Z,0
2016-10-12T03:22:25.519Z,0
2016-10-12T03:23:25.909Z,0
2016-10-12T03:24:26.127Z,0
2016-10-12T03:25:26.138Z,0
2016-10-12T03:26:26.188Z,0
2016-10-12T03:27:26.274Z,0
2016-10-12T03:28:26.265Z,0
2016-10-12T03:29:26.362Z,0
2016-10-12T03:30:26.247Z,0
2016-10-12T03:31:25.967Z,0
2016-10-12T03:32:26.384Z,0
2016-10-12T03:33:26.330Z,0
2016-10-12T03:34:26.391Z,0
2016-10-12T03:35:26.402Z,0
2016-10-12T03:36:25.788Z,0
2016-10-12T03:37:26.369Z,0
2016-10-12T03:38:26.390Z,0
2016-10-12T03:39:26.420Z,0
2016-10-12T03:40:26.227Z,0
2016-10-12T03:41:26.269Z,0
2016-10-12T03:42:26.568Z,0
2016-10-12T03:43:26.182Z,0
2016-10-12T03:44:26.514Z,0
2016-10-12T03:45:26.567Z,0
2016-10-12T03:46:26.221Z,0
2016-10-12T03:47:26.239Z,0
2016-10-12T03:48:26.566Z,0
2016-10-12T03:49:26.573Z,0
2016-10-12T03:50:26.285Z,0
2016-10-12T03:51:26.629Z,0
2016-10-12T03:52:26.338Z,0
2016-10-12T03:53:26.498Z,0
2016-10-12T03:54:26.669Z,0
2016-10-12T03:55:26.799Z,0
2016-10-12T03:56:26.538Z,0
2016-10-12T03:57:26.829Z,0
2016-10-12T03:58:26.520Z,0
2016-10-12T03:59:27.051Z,0
2016-10-12T04:00:26.472Z,0
2016-10-12T04:01:26.848Z,0
2016-10-12T04:02:26.510Z,0
2016-10-12T04:03:26.204Z,0
2016-10-12T04:04:26.840Z,0
2016-10-12T04:05:26.876Z,0
2016-10-12T04:06:26.886Z,0
2016-10-12T04:07:26.921Z,0
2016-10-12T04:08:26.617Z,0
2016-10-12T04:09:26.717Z,0
2016-10-12T04:10:26.660Z,0
2016-10-12T04:11:26.715Z,0
2016-10-12T04:12:26.675Z,0
2016-10-12T04:13:26.708Z,0
2016-10-12T04:14:27.074Z,0
2016-10-12T04:15:27.048Z,0
2016-10-12T04:16:27.057Z,0
2016-10-12T04:17:27.078Z,0
2016-10-12T04:18:59.070Z,0
2016-10-12T04:19:27.117Z,0
2016-10-12T04:20:26.809Z,0
2016-10-12T04:21:26.840Z,0
2016-10-12T04:22:27.258Z,0
2016-10-12T04:23:27.203Z,0
2016-10-12T04:24:26.982Z,0
2016-10-12T04:25:26.648Z,0
2016-10-12T04:26:27.235Z,0
2016-10-12T04:27:27.246Z,0
2016-10-12T04:28:26.977Z,0
2016-10-12T04:29:27.281Z,0
2016-10-12T04:30:27.403Z,0
2016-10-12T04:31:27.328Z,0
2016-10-12T04:32:27.013Z,0
2016-10-12T04:33:27.350Z,0
2016-10-12T04:34:27.146Z,0
2016-10-12T04:35:27.386Z,0
2016-10-12T04:36:27.458Z,0
2016-10-12T04:37:27.435Z,0
2016-10-12T04:38:27.129Z,0
2016-10-12T04:39:27.521Z,0
2016-10-12T04:40:27.497Z,0
2016-10-12T04:41:27.529Z,0
2016-10-12T04:42:27.508Z,0
2016-10-12T04:43:27.555Z,0
2016-10-12T04:44:27.269Z,0
2016-10-12T04:45:27.588Z,0
2016-10-12T04:46:27.691Z,0
2016-10-12T04:47:27.652Z,0
2016-10-12T04:48:27.618Z,0
2016-10-12T04:49:27.004Z,0
2016-10-12T04:50:27.697Z,0
2016-10-12T04:51:27.369Z,0
2016-10-12T04:52:27.393Z,0
2016-10-12T04:53:27.399Z,0
2016-10-12T04:54:27.095Z,0
2016-10-12T04:55:27.449Z,0
2016-10-12T04:56:27.767Z,0
2016-10-12T04:57:27.765Z,0
2016-10-12T04:58:27.180Z,0
2016-10-12T04:59:27.517Z,0
2016-10-12T05:00:27.836Z,0
2016-10-12T05:01:27.224Z,0
2016-10-12T05:02:27.976Z,0
2016-10-12T05:03:27.884Z,0
2016-10-12T05:04:27.594Z,0
2016-10-12T05:05:27.659Z,0
2016-10-12T05:06:28.127Z,0
2016-10-12T05:07:27.965Z,0
2016-10-12T05:08:28.293Z,0
2016-10-12T05:09:28.004Z,0
2016-10-12T05:10:28.009Z,0
2016-10-12T05:11:27.444Z,0
2016-10-12T05:12:27.875Z,0
2016-10-12T05:13:28.186Z,0
2016-10-12T05:14:27.776Z,0
2016-10-12T05:15:28.188Z,0
2016-10-12T05:16:27.868Z,0
2016-10-12T05:17:28.143Z,0
2016-10-12T05:18:27.845Z,0
2016-10-12T05:19:28.202Z,0
2016-10-12T05:20:28.226Z,0
2016-10-12T05:21:27.675Z,0
2016-10-12T05:22:28.218Z,0
2016-10-12T05:23:28.215Z,0
2016-10-12T05:24:28.094Z,0
2016-10-12T05:25:27.966Z,0
2016-10-12T05:26:27.974Z,0
2016-10-12T05:27:28.360Z,0
2016-10-12T05:28:28.353Z,0
2016-10-12T05:29:28.400Z,0
2016-10-12T05:30:27.830Z,0
2016-10-12T05:31:28.390Z,0
2016-10-12T05:32:28.192Z,0
2016-10-12T05:33:28.396Z,0
2016-10-12T05:34:28.432Z,0
2016-10-12T05:35:27.815Z,0
2016-10-12T05:36:28.450Z,0
2016-10-12T05:37:28.467Z,0
2016-10-12T05:38:28.178Z,0
2016-10-12T05:39:28.511Z,0
2016-10-12T05:40:28.568Z,0
2016-10-12T05:41:28.633Z,0
2016-10-12T05:42:28.596Z,0
2016-10-12T05:43:28.685Z,0
2016-10-12T05:44:28.312Z,0
2016-10-12T05:45:28.627Z,0
2016-10-12T05:46:28.304Z,5
2016-10-12T05:47:28.418Z,5
2016-10-12T05:48:28.667Z,5
2016-10-12T05:49:28.384Z,5
2016-10-12T05:50:28.715Z,5
2016-10-12T05:51:28.695Z,5
2016-10-12T05:52:28.731Z,10
2016-10-12T05:53:28.438Z,10
2016-10-12T05:54:28.907Z,10
2016-10-12T05:55:28.906Z,10
2016-10-12T05:56:28.834Z,10
2016-10-12T05:57:28.905Z,10
2016-10-12T05:58:28.545Z,15
2016-10-12T05:59:28.877Z,15
2016-10-12T06:00:28.870Z,15
2016-10-12T06:01:28.270Z,15
2016-10-12T06:02:28.900Z,20
2016-10-12T06:03:28.291Z,20
2016-10-12T06:04:28.635Z,20
2016-10-12T06:05:29.008Z,20
2016-10-12T06:06:28.658Z,20
2016-10-12T06:07:29.008Z,25
2016-10-12T06:08:28.496Z,25
2016-10-12T06:09:28.725Z,25
2016-10-12T06:10:29.183Z,30
2016-10-12T06:11:29.063Z,30
2016-10-12T06:12:29.111Z,30
2016-10-12T06:13:29.096Z,30
2016-10-12T06:14:28.794Z,30
2016-10-12T06:15:29.136Z,30
2016-10-12T06:16:29.173Z,35
2016-10-12T06:17:29.169Z,35
2016-10-12T06:18:29.318Z,35
2016-10-12T06:19:28.878Z,35
2016-10-12T06:20:28.955Z,35
2016-10-12T06:21:29.248Z,30
2016-10-12T06:22:29.676Z,30
2016-10-12T06:23:29.569Z,30
2016-10-12T06:24:29.409Z,35
2016-10-12T06:25:29.019Z,35
2016-10-12T06:26:29.590Z,35
2016-10-12T06:27:29.284Z,40
2016-10-12T06:28:28.427Z,40
2016-10-12T06:29:28.757Z,45
2016-10-12T06:30:29.589Z,45
2016-10-12T06:31:29.635Z,45
2016-10-12T06:32:29.233Z,45
2016-10-12T06:33:28.825Z,45
2016-10-12T06:34:29.568Z,45
2016-10-12T06:35:29.767Z,45
2016-10-12T06:36:29.250Z,40
2016-10-12T06:37:29.765Z,45
2016-10-12T06:38:29.653Z,45
2016-10-12T06:39:28.923Z,40
2016-10-12T06:40:28.629Z,45
2016-10-12T06:41:29.737Z,45
2016-10-12T06:42:29.299Z,50
2016-10-12T06:43:29.763Z,50
2016-10-12T06:44:29.631Z,50
2016-10-12T06:45:29.722Z,45
2016-10-12T06:46:29.800Z,45
2016-10-12T06:47:29.797Z,45
2016-10-12T06:48:29.400Z,40
2016-10-12T06:49:29.655Z,40
2016-10-12T06:50:29.772Z,40
2016-10-12T06:51:29.436Z,40
2016-10-12T06:52:29.839Z,40
2016-10-12T06:53:29.466Z,35
2016-10-12T06:54:29.865Z,35
2016-10-12T06:55:29.529Z,35
2016-10-12T06:56:29.959Z,35
2016-10-12T06:57:29.745Z,35
2016-10-12T06:58:29.667Z,35
2016-10-12T06:59:29.308Z,35
2016-10-12T07:00:29.928Z,35
2016-10-12T07:01:29.941Z,35
2016-10-12T07:02:30.020Z,30
2016-10-12T07:03:30.018Z,25
2016-10-12T07:04:29.889Z,20
2016-10-12T07:05:29.718Z,15
2016-10-12T07:06:29.710Z,15
2016-10-12T07:07:30.025Z,20
2016-10-12T07:08:30.066Z,25
2016-10-12T07:09:29.158Z,25
2016-10-12T07:10:30.089Z,25
2016-10-12T07:11:30.017Z,30
2016-10-12T07:12:30.132Z,30
2016-10-12T07:13:30.147Z,30
2016-10-12T07:14:29.912Z,30
2016-10-12T07:15:30.029Z,35
2016-10-12T07:16:29.898Z,40
2016-10-12T07:17:30.109Z,40
2016-10-12T07:18:30.427Z,40
2016-10-12T07:19:30.086Z,40
2016-10-12T07:20:29.705Z,40
2016-10-12T07:21:29.746Z,40
2016-10-12T07:22:30.330Z,45
2016-10-12T07:24:02.005Z,50
2016-10-12T07:24:30.050Z,55
2016-10-12T07:25:30.077Z,60
2016-10-12T07:26:30.298Z,65
2016-10-12T07:27:30.096Z,70
2016-10-12T07:28:30.437Z,70
2016-10-12T07:29:30.557Z,70
2016-10-12T07:30:30.181Z,75
2016-10-12T07:31:30.157Z,80
2016-10-12T07:32:30.218Z,85
2016-10-12T07:33:30.187Z,85
2016-10-12T07:34:30.228Z,85
2016-10-12T07:35:30.206Z,85
2016-10-12T07:36:30.263Z,85
2016-10-12T07:37:30.291Z,90
2016-10-12T07:38:30.594Z,95
2016-10-12T07:39:30.307Z,105
2016-10-12T07:40:29.852Z,110
2016-10-12T07:41:30.337Z,115
2016-10-12T07:42:30.736Z,130
2016-10-12T07:43:30.917Z,135
2016-10-12T07:44:30.812Z,145
2016-10-12T07:45:29.799Z,155
2016-10-12T07:46:30.488Z,170
2016-10-12T07:47:30.968Z,185
2016-10-12T07:48:30.768Z,200
2016-10-12T07:49:30.797Z,220
2016-10-12T07:50:30.829Z,230
2016-10-12T07:51:30.631Z,245
2016-10-12T07:52:30.841Z,250
2016-10-12T07:53:30.606Z,250
2016-10-12T07:54:30.900Z,240
2016-10-12T07:55:30.898Z,235
2016-10-12T07:56:30.999Z,240
2016-10-12T07:57:30.381Z,250
2016-10-12T07:58:30.653Z,255
2016-10-12T07:59:30.667Z,270
2016-10-12T08:00:30.357Z,285
2016-10-12T08:01:30.468Z,310
2016-10-12T08:02:30.418Z,310
2016-10-12T08:03:31.046Z,305
2016-10-12T08:04:30.436Z,300
2016-10-12T08:05:30.769Z,300
2016-10-12T08:06:30.866Z,295
2016-10-12T08:07:31.291Z,280
2016-10-12T08:08:31.144Z,250
2016-10-12T08:09:31.198Z,215
2016-10-12T08:10:30.866Z,210
2016-10-12T08:11:31.006Z,195
2016-10-12T08:12:31.219Z,190
2016-10-12T08:13:31.252Z,190
2016-10-12T08:14:31.259Z,215
2016-10-12T08:15:31.266Z,265
2016-10-12T08:16:30.972Z,300
2016-10-12T08:17:31.019Z,265
2016-10-12T08:18:30.689Z,260
2016-10-12T08:19:31.130Z,270
2016-10-12T08:20:31.107Z,275
2016-10-12T08:21:31.078Z,290
2016-10-12T08:22:30.500Z,300
2016-10-12T08:23:30.792Z,315
2016-10-12T08:24:31.440Z,310
2016-10-12T08:25:31.156Z,315
2016-10-12T08:26:30.856Z,320
2016-10-12T08:27:31.209Z,305
2016-10-12T08:28:31.515Z,305
2016-10-12T08:29:31.268Z,295
2016-10-12T08:30:31.567Z,310
2016-10-12T08:31:31.597Z,310
2016-10-12T08:32:30.971Z,300
2016-10-12T08:33:31.305Z,295
2016-10-12T08:34:31.659Z,295
2016-10-12T08:35:31.339Z,320
2016-10-12T08:36:31.360Z,320
2016-10-12T08:37:31.377Z,320
2016-10-12T08:38:31.390Z,310
2016-10-12T08:39:31.727Z,300
2016-10-12T08:40:31.754Z,300
2016-10-12T08:41:31.140Z,305
2016-10-12T08:42:31.577Z,280
2016-10-12T08:43:31.797Z,255
2016-10-12T08:44:31.824Z,235
2016-10-12T08:45:31.534Z,235
2016-10-12T08:46:31.590Z,260
2016-10-12T08:47:31.950Z,245
2016-10-12T08:48:31.578Z,250
2016-10-12T08:49:31.611Z,270
2016-10-12T08:50:31.329Z,275
2016-10-12T08:51:31.693Z,265
2016-10-12T08:52:31.683Z,240
2016-10-12T08:53:31.992Z,225
2016-10-12T08:54:32.017Z,210
2016-10-12T08:55:32.043Z,210
2016-10-12T08:56:31.763Z,210
2016-10-12T08:57:32.068Z,225
2016-10-12T08:58:31.779Z,235
2016-10-12T08:59:32.159Z,240
2016-10-12T09:00:31.840Z,250
2016-10-12T09:01:32.241Z,270
2016-10-12T09:02:31.877Z,295
2016-10-12T09:03:31.899Z,310
2016-10-12T09:04:32.413Z,310
2016-10-12T09:05:31.928Z,310
2016-10-12T09:06:32.283Z,310
2016-10-12T09:07:32.291Z,315
2016-10-12T09:08:31.669Z,325
2016-10-12T09:09:32.461Z,335
2016-10-12T09:10:32.070Z,335
2016-10-12T09:11:31.730Z,345
2016-10-12T09:12:32.446Z,350
2016-10-12T09:13:32.430Z,350
2016-10-12T09:14:31.800Z,350
2016-10-12T09:15:31.858Z,345
2016-10-12T09:16:32.465Z,335
2016-10-12T09:17:32.158Z,315
2016-10-12T09:18:32.160Z,305
2016-10-12T09:19:32.207Z,290
2016-10-12T09:20:32.235Z,280
2016-10-12T09:21:32.552Z,270
2016-10-12T09:22:32.322Z,245
2016-10-12T09:23:32.290Z,225
2016-10-12T09:24:32.606Z,215
2016-10-12T09:26:04.026Z,220
2016-10-12T09:26:32.859Z,220
2016-10-12T09:27:32.358Z,220
2016-10-12T09:28:32.711Z,235
2016-10-12T09:29:32.165Z,245
2016-10-12T09:30:32.430Z,255
2016-10-12T09:31:32.747Z,260
2016-10-12T09:32:32.573Z,270
2016-10-12T09:33:32.501Z,280
2016-10-12T09:34:32.811Z,300
2016-10-12T09:35:32.617Z,315
2016-10-12T09:36:32.277Z,320
2016-10-12T09:37:32.650Z,320
2016-10-12T09:38:32.972Z,320
2016-10-12T09:39:32.347Z,325
2016-10-12T09:40:32.618Z,330
2016-10-12T09:41:32.645Z,335
2016-10-12T09:42:32.654Z,350
2016-10-12T09:43:32.999Z,345
2016-10-12T09:44:32.709Z,345
2016-10-12T09:45:33.031Z,340
2016-10-12T09:46:32.424Z,345
2016-10-12T09:47:33.235Z,335
2016-10-12T09:48:32.799Z,325
2016-10-12T09:49:32.247Z,325
2016-10-12T09:50:32.207Z,330
2016-10-12T09:51:32.575Z,325
2016-10-12T09:52:32.869Z,310
2016-10-12T09:53:33.188Z,280
2016-10-12T09:54:33.164Z,270
2016-10-12T09:55:33.531Z,260
2016-10-12T09:56:33.121Z,265
2016-10-12T09:57:33.572Z,310
2016-10-12T09:58:33.480Z,285
2016-10-12T09:59:33.127Z,260
2016-10-12T10:00:33.038Z,295
2016-10-12T10:01:32.739Z,315
2016-10-12T10:02:33.562Z,315
2016-10-12T10:03:33.498Z,305
2016-10-12T10:04:32.834Z,275
2016-10-12T10:05:33.540Z,240
2016-10-12T10:06:32.839Z,235
2016-10-12T10:07:33.608Z,260
2016-10-12T10:08:33.311Z,275
2016-10-12T10:09:33.599Z,280
2016-10-12T10:10:32.966Z,280
2016-10-12T10:11:33.645Z,255
2016-10-12T10:12:33.319Z,245
2016-10-12T10:13:33.421Z,255
2016-10-12T10:14:33.722Z,250
2016-10-12T10:15:33.439Z,240
2016-10-12T10:16:33.389Z,235
2016-10-12T10:17:33.358Z,215
2016-10-12T10:18:33.740Z,215
2016-10-12T10:19:33.749Z,210
2016-10-12T10:20:33.729Z,205
2016-10-12T10:21:33.757Z,205
2016-10-12T10:22:33.677Z,215
2016-10-12T10:23:33.379Z,225
2016-10-12T10:24:33.667Z,210
2016-10-12T10:25:33.870Z,215
2016-10-12T10:26:33.681Z,220
2016-10-12T10:27:33.713Z,220
2016-10-12T10:28:33.325Z,215
2016-10-12T10:29:33.703Z,225
2016-10-12T10:30:34.053Z,220
2016-10-12T10:31:33.943Z,220
2016-10-12T10:32:33.906Z,225
2016-10-12T10:33:33.802Z,230
2016-10-12T10:34:33.948Z,215
2016-10-12T10:35:33.410Z,215
2016-10-12T10:36:34.037Z,210
2016-10-12T10:37:34.080Z,210
2016-10-12T10:38:34.004Z,210
2016-10-12T10:39:33.808Z,205
2016-10-12T10:40:33.890Z,205
2016-10-12T10:41:34.130Z,200
2016-10-12T10:42:34.273Z,200
2016-10-12T10:43:33.866Z,195
2016-10-12T10:44:33.781Z,195
2016-10-12T10:45:34.079Z,185
2016-10-12T10:46:34.030Z,180
2016-10-12T10:47:34.569Z,180
2016-10-12T10:48:33.976Z,190
2016-10-12T10:49:34.299Z,195
2016-10-12T10:50:34.052Z,180
2016-10-12T10:51:34.618Z,180
2016-10-12T10:52:34.337Z,180
2016-10-12T10:53:34.005Z,185
2016-10-12T10:54:34.700Z,180
2016-10-12T10:55:34.431Z,175
2016-10-12T10:56:34.108Z,185
2016-10-12T10:57:34.141Z,195
2016-10-12T10:58:34.570Z,190
2016-10-12T10:59:34.492Z,200
2016-10-12T11:00:34.471Z,190
2016-10-12T11:01:34.282Z,210
2016-10-12T11:02:33.640Z,210
2016-10-12T11:03:34.621Z,210
2016-10-12T11:04:34.086Z,210
2016-10-12T11:05:34.591Z,200
2016-10-12T11:06:33.991Z,210
2016-10-12T11:07:34.330Z,205
2016-10-12T11:08:34.488Z,215
2016-10-12T11:09:34.658Z,200
2016-10-12T11:10:34.380Z,215
2016-10-12T11:11:34.738Z,225
2016-10-12T11:12:34.721Z,215
2016-10-12T11:13:34.759Z,225
2016-10-12T11:14:34.551Z,245
2016-10-12T11:15:34.961Z,265
2016-10-12T11:16:34.713Z,295
2016-10-12T11:17:34.297Z,300
2016-10-12T11:18:34.642Z,315
2016-10-12T11:19:34.871Z,330
2016-10-12T11:20:34.613Z,345
2016-10-12T11:21:34.882Z,335
2016-10-12T11:22:34.924Z,355
2016-10-12T11:23:35.351Z,305
2016-10-12T11:24:34.624Z,265
2016-10-12T11:25:34.985Z,205
2016-10-12T11:26:34.671Z,160
2016-10-12T11:27:34.757Z,150
2016-10-12T11:28:34.786Z,170
2016-10-12T11:29:34.745Z,205
2016-10-12T11:30:35.068Z,230
2016-10-12T11:31:34.863Z,250
2016-10-12T11:32:34.819Z,255
2016-10-12T11:33:34.854Z,235
2016-10-12T11:34:35.140Z,225
2016-10-12T11:35:35.186Z,230
2016-10-12T11:36:34.896Z,240
2016-10-12T11:37:34.591Z,250
2016-10-12T11:38:35.228Z,265
2016-10-12T11:39:35.253Z,275
2016-10-12T11:40:34.962Z,290
2016-10-12T11:41:34.988Z,320
2016-10-12T11:42:35.511Z,320
2016-10-12T11:43:35.089Z,315
2016-10-12T11:44:35.146Z,305
2016-10-12T11:45:35.389Z,270
2016-10-12T11:46:35.456Z,230
2016-10-12T11:47:35.463Z,195
2016-10-12T11:48:35.428Z,195
2016-10-12T11:49:35.459Z,195
2016-10-12T11:50:35.460Z,200
2016-10-12T11:51:35.206Z,200
2016-10-12T11:52:35.529Z,190
2016-10-12T11:53:35.553Z,195
2016-10-12T11:54:35.660Z,190
2016-10-12T11:55:35.641Z,180
2016-10-12T11:56:35.609Z,175
2016-10-12T11:57:35.721Z,185
2016-10-12T11:58:35.708Z,205
2016-10-12T11:59:35.658Z,225
2016-10-12T12:00:35.705Z,245
2016-10-12T12:01:35.388Z,255
2016-10-12T12:02:35.727Z,250
2016-10-12T12:03:35.129Z,245
2016-10-12T12:04:35.743Z,245
2016-10-12T12:05:35.477Z,245
2016-10-12T12:06:35.919Z,245
2016-10-12T12:07:35.509Z,245
2016-10-12T12:08:35.519Z,255
2016-10-12T12:09:35.213Z,255
2016-10-12T12:10:35.887Z,245
2016-10-12T12:11:35.429Z,230
2016-10-12T12:12:35.949Z,245
2016-10-12T12:13:36.056Z,250
2016-10-12T12:14:35.972Z,250
2016-10-12T12:15:35.366Z,235
2016-10-12T12:16:35.446Z,205
2016-10-12T12:17:35.686Z,180
2016-10-12T12:18:36.131Z,165
2016-10-12T12:19:36.189Z,165
2016-10-12T12:20:35.778Z,180
2016-10-12T12:21:36.135Z,175
2016-10-12T12:22:36.150Z,175
2016-10-12T12:23:35.879Z,170
2016-10-12T12:24:36.178Z,175
2016-10-12T12:25:36.007Z,200
2016-10-12T12:26:36.201Z,235
2016-10-12T12:27:36.229Z,270
2016-10-12T12:28:36.233Z,290
2016-10-12T12:29:35.938Z,315
2016-10-12T12:30:36.041Z,320
2016-10-12T12:31:35.359Z,315
2016-10-12T12:32:35.709Z,300
2016-10-12T12:33:36.564Z,295
2016-10-12T12:34:36.057Z,285
2016-10-12T12:35:36.129Z,290
2016-10-12T12:36:36.390Z,310
2016-10-12T12:37:36.419Z,295
2016-10-12T12:38:36.446Z,270
2016-10-12T12:39:36.177Z,260
2016-10-12T12:40:36.502Z,240
2016-10-12T12:41:36.178Z,225
2016-10-12T12:42:36.207Z,225
2016-10-12T12:43:36.587Z,225
2016-10-12T12:44:36.737Z,255
2016-10-12T12:45:36.649Z,270
2016-10-12T12:46:36.646Z,275
2016-10-12T12:47:36.629Z,290
2016-10-12T12:48:36.686Z,295
2016-10-12T12:49:36.475Z,330
2016-10-12T12:50:36.416Z,350
2016-10-12T12:51:36.714Z,360
2016-10-12T12:52:36.728Z,355
2016-10-12T12:53:36.747Z,345
2016-10-12T12:54:36.219Z,315
2016-10-12T12:55:36.790Z,310
2016-10-12T12:56:36.795Z,335
2016-10-12T12:57:36.246Z,320
2016-10-12T12:58:37.029Z,280
2016-10-12T12:59:36.960Z,275
2016-10-12T13:00:36.609Z,280
2016-10-12T13:01:36.609Z,300
2016-10-12T13:02:36.306Z,295
2016-10-12T13:03:35.806Z,280
2016-10-12T13:04:36.980Z,280
2016-10-12T13:05:37.016Z,295
2016-10-12T13:06:36.718Z,295
2016-10-12T13:07:37.265Z,295
2016-10-12T13:08:37.377Z,285
2016-10-12T13:09:37.339Z,285
2016-10-12T13:10:37.086Z,285
2016-10-12T13:11:36.491Z,310
2016-10-12T13:12:37.611Z,330
2016-10-12T13:13:37.313Z,350
2016-10-12T13:14:37.058Z,355
2016-10-12T13:15:37.323Z,360
2016-10-12T13:16:37.504Z,380
2016-10-12T13:17:37.457Z,365
2016-10-12T13:18:37.057Z,345
2016-10-12T13:19:36.696Z,335
2016-10-12T13:20:37.458Z,315
2016-10-12T13:21:37.446Z,305
2016-10-12T13:22:37.498Z,295
2016-10-12T13:23:37.065Z,295
2016-10-12T13:24:37.486Z,290
2016-10-12T13:25:37.447Z,295
2016-10-12T13:26:37.470Z,300
2016-10-12T13:27:36.842Z,295
2016-10-12T13:28:37.479Z,295
2016-10-12T13:29:37.496Z,295
2016-10-12T13:30:36.886Z,300
2016-10-12T13:31:37.545Z,295
2016-10-12T13:32:37.687Z,280
2016-10-12T13:33:37.266Z,260
2016-10-12T13:34:37.457Z,235
2016-10-12T13:35:37.314Z,230
2016-10-12T13:36:37.366Z,225
2016-10-12T13:38:09.767Z,200
2016-10-12T13:38:37.703Z,195
2016-10-12T13:39:37.719Z,190
2016-10-12T13:40:37.732Z,170
2016-10-12T13:41:37.768Z,150
2016-10-12T13:42:37.784Z,150
2016-10-12T13:43:37.845Z,150
2016-10-12T13:44:37.532Z,145
2016-10-12T13:45:37.227Z,135
2016-10-12T13:46:37.596Z,135
2016-10-12T13:47:37.929Z,130
2016-10-12T13:48:37.576Z,130
2016-10-12T13:49:37.909Z,130
2016-10-12T13:50:37.617Z,120
2016-10-12T13:51:37.971Z,110
2016-10-12T13:52:37.669Z,115
2016-10-12T13:53:37.752Z,130
2016-10-12T13:54:37.871Z,140
2016-10-12T13:55:38.039Z,130
2016-10-12T13:56:37.454Z,125
2016-10-12T13:57:38.204Z,120
2016-10-12T13:58:38.177Z,115
2016-10-12T13:59:37.553Z,115
2016-10-12T14:00:38.216Z,120
2016-10-12T14:01:38.157Z,125
2016-10-12T14:02:38.225Z,125
2016-10-12T14:03:37.883Z,135
2016-10-12T14:04:38.240Z,150
2016-10-12T14:05:38.246Z,150
2016-10-12T14:06:38.315Z,145
2016-10-12T14:07:37.978Z,145
2016-10-12T14:08:38.307Z,150
2016-10-12T14:09:38.006Z,155
2016-10-12T14:10:38.357Z,145
2016-10-12T14:11:38.446Z,145
2016-10-12T14:12:38.378Z,145
2016-10-12T14:13:38.117Z,140
2016-10-12T14:14:37.825Z,145